sensor_id;sensor_type;location;lat;lon;timestamp;P1;durP1;ratioP1;P2;durP2;ratioP2
60865;SDS011;46701;51.558;-0.448;2022-08-14T00:02:38;5.4;;;2.7;;
60865;SDS011;46701;51.558;-0.448;2022-08-14T00:05:39;5.3;;;2.8;;
60865;SDS011;46701;51.558;-0.448;2022-08-14T00:08:40;4.8;;;2.7;;
60865;SDS011;46701;51.558;-0.448;2022-08-14T00:11:41;5.6;;;2.7;;
60865;SDS011;46701;51.558;-0.448;2022-08-14T00:14:42;5.1;;;2.5;;
60865;SDS011;46701;51.558;-0.448;2022-08-14T00:17:43;4.5;;;2.8;;
60865;SDS011;46701;51.558;-0.448;2022-08-14T00:20:44;5.5;;;2.6;;
60865;SDS011;46701;51.558;-0.448;2022-08-14T00:23:45;6;;;2.6;;
60865;SDS011;46701;51.558;-0.448;2022-08-14T00:26:46;3.5;;;2.5;;
60865;SDS011;46701;51.558;-0.448;2022-08-14T00:29:47;5.2;;;2.6;;
60865;SDS011;46701;51.558;-0.448;2022-08-14T00:32:48;5.8;;;2.8;;
60865;SDS011;46701;51.558;-0.448;2022-08-14T00:35:49;4.4;;;2.7;;
60865;SDS011;46701;51.558;-0.448;2022-08-14T00:38:50;5.3;;;2.9;;
60865;SDS011;46701;51.558;-0.448;2022-08-14T00:41:54;4.4;;;2.9;;
60865;SDS011;46701;51.558;-0.448;2022-08-14T00:44:52;4.8;;;2.7;;
60865;SDS011;46701;51.558;-0.448;2022-08-14T00:47:53;6.1;;;2.8;;
60865;SDS011;46701;51.558;-0.448;2022-08-14T00:50:54;4.9;;;2.7;;
60865;SDS011;46701;51.558;-0.448;2022-08-14T00:53:55;4.3;;;2.9;;
60865;SDS011;46701;51.558;-0.448;2022-08-14T00:56:56;4.6;;;2.6;;
60865;SDS011;46701;51.558;-0.448;2022-08-14T00:59:57;6;;;2.9;;
60865;SDS011;46701;51.558;-0.448;2022-08-14T01:02:58;5.2;;;2.9;;
60865;SDS011;46701;51.558;-0.448;2022-08-14T01:05:59;5.1;;;2.5;;
60865;SDS011;46701;51.558;-0.448;2022-08-14T01:09:00;6.9;;;2.7;;
60865;SDS011;46701;51.558;-0.448;2022-08-14T01:12:02;4.9;;;2.3;;
60865;SDS011;46701;51.558;-0.448;2022-08-14T01:15:02;4.6;;;2.5;;
60865;SDS011;46701;51.558;-0.448;2022-08-14T01:18:03;3.8;;;2.4;;
60865;SDS011;46701;51.558;-0.448;2022-08-14T01:21:05;3.9;;;2.2;;
60865;SDS011;46701;51.558;-0.448;2022-08-14T01:24:06;3.7;;;2.2;;
60865;SDS011;46701;51.558;-0.448;2022-08-14T01:27:06;5.3;;;2.4;;
60865;SDS011;46701;51.558;-0.448;2022-08-14T01:30:07;4.8;;;2.5;;
60865;SDS011;46701;51.558;-0.448;2022-08-14T01:33:08;5;;;2.5;;
60865;SDS011;46701;51.558;-0.448;2022-08-14T01:36:10;4.1;;;2.3;;
60865;SDS011;46701;51.558;-0.448;2022-08-14T01:38:10;3.5;;;2.1;;
60865;SDS011;46701;51.558;-0.448;2022-08-14T01:41:12;3.7;;;2.2;;
60865;SDS011;46701;51.558;-0.448;2022-08-14T01:44:12;3.9;;;2;;
60865;SDS011;46701;51.558;-0.448;2022-08-14T01:47:13;3.3;;;2.1;;
60865;SDS011;46701;51.558;-0.448;2022-08-14T01:50:14;3.2;;;2.1;;
60865;SDS011;46701;51.558;-0.448;2022-08-14T01:53:15;3.5;;;2;;
60865;SDS011;46701;51.558;-0.448;2022-08-14T01:56:16;2.9;;;2.2;;
60865;SDS011;46701;51.558;-0.448;2022-08-14T01:59:18;3.5;;;2.2;;
60865;SDS011;46701;51.558;-0.448;2022-08-14T02:02:18;3.8;;;2.1;;
60865;SDS011;46701;51.558;-0.448;2022-08-14T02:05:19;2.9;;;2.1;;
60865;SDS011;46701;51.558;-0.448;2022-08-14T02:08:22;2.7;;;2;;
60865;SDS011;46701;51.558;-0.448;2022-08-14T02:11:21;3.2;;;2;;
60865;SDS011;46701;51.558;-0.448;2022-08-14T02:14:22;3;;;1.9;;
60865;SDS011;46701;51.558;-0.448;2022-08-14T02:17:23;2.8;;;2.1;;
60865;SDS011;46701;51.558;-0.448;2022-08-14T02:20:24;2.8;;;2.1;;
60865;SDS011;46701;51.558;-0.448;2022-08-14T02:23:25;3.3;;;1.9;;
60865;SDS011;46701;51.558;-0.448;2022-08-14T02:26:26;2.6;;;1.8;;
60865;SDS011;46701;51.558;-0.448;2022-08-14T02:29:28;2.8;;;1.6;;
60865;SDS011;46701;51.558;-0.448;2022-08-14T02:32:28;2.7;;;1.9;;
60865;SDS011;46701;51.558;-0.448;2022-08-14T02:35:29;2.5;;;1.7;;
60865;SDS011;46701;51.558;-0.448;2022-08-14T02:38:30;2.4;;;1.8;;
60865;SDS011;46701;51.558;-0.448;2022-08-14T02:41:31;4.4;;;1.8;;
60865;SDS011;46701;51.558;-0.448;2022-08-14T02:44:32;2.8;;;1.7;;
60865;SDS011;46701;51.558;-0.448;2022-08-14T02:47:33;2;;;1.6;;
60865;SDS011;46701;51.558;-0.448;2022-08-14T02:50:34;2.6;;;1.8;;
60865;SDS011;46701;51.558;-0.448;2022-08-14T02:53:35;3.3;;;1.8;;
60865;SDS011;46701;51.558;-0.448;2022-08-14T02:56:36;3.2;;;1.7;;
60865;SDS011;46701;51.558;-0.448;2022-08-14T02:59:37;3;;;1.7;;
60865;SDS011;46701;51.558;-0.448;2022-08-14T03:02:38;2.5;;;1.8;;
60865;SDS011;46701;51.558;-0.448;2022-08-14T03:05:39;2.2;;;1.7;;
60865;SDS011;46701;51.558;-0.448;2022-08-14T03:08:40;2.1;;;1.6;;
60865;SDS011;46701;51.558;-0.448;2022-08-14T03:11:41;2.4;;;1.8;;
60865;SDS011;46701;51.558;-0.448;2022-08-14T03:14:42;2.6;;;1.7;;
60865;SDS011;46701;51.558;-0.448;2022-08-14T03:17:43;3;;;1.7;;
60865;SDS011;46701;51.558;-0.448;2022-08-14T03:20:44;3.5;;;1.7;;
60865;SDS011;46701;51.558;-0.448;2022-08-14T03:23:46;2.5;;;1.4;;
60865;SDS011;46701;51.558;-0.448;2022-08-14T03:26:46;2.2;;;1.6;;
60865;SDS011;46701;51.558;-0.448;2022-08-14T03:29:47;2.6;;;1.6;;
60865;SDS011;46701;51.558;-0.448;2022-08-14T03:32:48;2.4;;;1.6;;
60865;SDS011;46701;51.558;-0.448;2022-08-14T03:35:49;3.9;;;1.7;;
60865;SDS011;46701;51.558;-0.448;2022-08-14T03:38:50;2;;;1.5;;
60865;SDS011;46701;51.558;-0.448;2022-08-14T03:40:50;2.3;;;1.7;;
60865;SDS011;46701;51.558;-0.448;2022-08-14T03:43:52;2.1;;;1.5;;
60865;SDS011;46701;51.558;-0.448;2022-08-14T03:46:52;2.7;;;1.9;;
60865;SDS011;46701;51.558;-0.448;2022-08-14T03:49:53;1.8;;;1.5;;
60865;SDS011;46701;51.558;-0.448;2022-08-14T03:52:54;1.9;;;1.4;;
60865;SDS011;46701;51.558;-0.448;2022-08-14T03:55:55;3.4;;;1.9;;
60865;SDS011;46701;51.558;-0.448;2022-08-14T03:58:57;2.6;;;1.5;;
60865;SDS011;46701;51.558;-0.448;2022-08-14T04:01:57;2.8;;;1.3;;
60865;SDS011;46701;51.558;-0.448;2022-08-14T04:04:59;2.4;;;1.6;;
60865;SDS011;46701;51.558;-0.448;2022-08-14T04:07:59;2.1;;;1.3;;
60865;SDS011;46701;51.558;-0.448;2022-08-14T04:11:00;2;;;1.5;;
60865;SDS011;46701;51.558;-0.448;2022-08-14T04:14:01;1.8;;;1.4;;
60865;SDS011;46701;51.558;-0.448;2022-08-14T04:17:02;2.4;;;1.3;;
60865;SDS011;46701;51.558;-0.448;2022-08-14T04:20:04;2.9;;;1.5;;
60865;SDS011;46701;51.558;-0.448;2022-08-14T04:23:04;2.5;;;1.6;;
60865;SDS011;46701;51.558;-0.448;2022-08-14T04:26:06;2;;;1.5;;
60865;SDS011;46701;51.558;-0.448;2022-08-14T04:29:06;1.7;;;1.5;;
60865;SDS011;46701;51.558;-0.448;2022-08-14T04:32:08;2.3;;;1.5;;
60865;SDS011;46701;51.558;-0.448;2022-08-14T04:35:08;1.7;;;1.3;;
60865;SDS011;46701;51.558;-0.448;2022-08-14T04:38:10;1.9;;;1.5;;
60865;SDS011;46701;51.558;-0.448;2022-08-14T04:41:10;2;;;1.5;;
60865;SDS011;46701;51.558;-0.448;2022-08-14T04:44:11;1.8;;;1.3;;
60865;SDS011;46701;51.558;-0.448;2022-08-14T04:47:12;2.3;;;1.4;;
60865;SDS011;46701;51.558;-0.448;2022-08-14T04:50:13;2.1;;;1.5;;
60865;SDS011;46701;51.558;-0.448;2022-08-14T04:53:15;1.8;;;1.3;;
60865;SDS011;46701;51.558;-0.448;2022-08-14T04:56:16;2.2;;;1.4;;
60865;SDS011;46701;51.558;-0.448;2022-08-14T04:59:16;1.9;;;1.4;;
60865;SDS011;46701;51.558;-0.448;2022-08-14T05:02:17;2.5;;;1.6;;
60865;SDS011;46701;51.558;-0.448;2022-08-14T05:05:18;1.9;;;1.3;;
60865;SDS011;46701;51.558;-0.448;2022-08-14T05:08:20;1.8;;;1.4;;
60865;SDS011;46701;51.558;-0.448;2022-08-14T05:11:20;1.9;;;1.5;;
60865;SDS011;46701;51.558;-0.448;2022-08-14T05:14:21;2.3;;;1.5;;
60865;SDS011;46701;51.558;-0.448;2022-08-14T05:17:22;2.1;;;1.5;;
60865;SDS011;46701;51.558;-0.448;2022-08-14T05:20:23;2.3;;;1.6;;
60865;SDS011;46701;51.558;-0.448;2022-08-14T05:23:25;2;;;1.5;;
60865;SDS011;46701;51.558;-0.448;2022-08-14T05:26:25;2.2;;;1.7;;
60865;SDS011;46701;51.558;-0.448;2022-08-14T05:29:26;2.4;;;1.5;;
60865;SDS011;46701;51.558;-0.448;2022-08-14T05:32:27;2.3;;;1.7;;
60865;SDS011;46701;51.558;-0.448;2022-08-14T05:35:28;2.2;;;1.5;;
60865;SDS011;46701;51.558;-0.448;2022-08-14T05:38:31;2;;;1.4;;
60865;SDS011;46701;51.558;-0.448;2022-08-14T05:41:30;5.3;;;1.5;;
60865;SDS011;46701;51.558;-0.448;2022-08-14T05:43:31;6.1;;;1.8;;
60865;SDS011;46701;51.558;-0.448;2022-08-14T05:46:32;3.1;;;1.3;;
60865;SDS011;46701;51.558;-0.448;2022-08-14T05:49:33;4.6;;;1.8;;
60865;SDS011;46701;51.558;-0.448;2022-08-14T05:52:34;3;;;1.4;;
60865;SDS011;46701;51.558;-0.448;2022-08-14T05:55:35;2.4;;;1.4;;
60865;SDS011;46701;51.558;-0.448;2022-08-14T05:58:36;2.1;;;1.2;;
60865;SDS011;46701;51.558;-0.448;2022-08-14T06:01:37;2.3;;;1.2;;
60865;SDS011;46701;51.558;-0.448;2022-08-14T06:04:38;2.4;;;1.5;;
60865;SDS011;46701;51.558;-0.448;2022-08-14T06:07:39;1.9;;;1.4;;
60865;SDS011;46701;51.558;-0.448;2022-08-14T06:10:40;2.5;;;1.4;;
60865;SDS011;46701;51.558;-0.448;2022-08-14T06:13:42;2.2;;;1.6;;
60865;SDS011;46701;51.558;-0.448;2022-08-14T06:16:42;2.8;;;1.3;;
60865;SDS011;46701;51.558;-0.448;2022-08-14T06:19:43;3.1;;;1.5;;
60865;SDS011;46701;51.558;-0.448;2022-08-14T06:22:44;2.9;;;1.4;;
60865;SDS011;46701;51.558;-0.448;2022-08-14T06:25:45;2.5;;;1.4;;
60865;SDS011;46701;51.558;-0.448;2022-08-14T06:28:46;2.7;;;1.3;;
60865;SDS011;46701;51.558;-0.448;2022-08-14T06:31:47;7.4;;;1.6;;
60865;SDS011;46701;51.558;-0.448;2022-08-14T06:34:48;2.8;;;1.5;;
60865;SDS011;46701;51.558;-0.448;2022-08-14T06:37:50;5.7;;;1.5;;
60865;SDS011;46701;51.558;-0.448;2022-08-14T06:40:50;7.1;;;1.6;;
60865;SDS011;46701;51.558;-0.448;2022-08-14T06:43:51;4.8;;;1.7;;
60865;SDS011;46701;51.558;-0.448;2022-08-14T06:46:52;6.4;;;1.7;;
60865;SDS011;46701;51.558;-0.448;2022-08-14T06:49:53;6.7;;;1.6;;
60865;SDS011;46701;51.558;-0.448;2022-08-14T06:52:54;6;;;1.6;;
60865;SDS011;46701;51.558;-0.448;2022-08-14T06:55:55;5;;;1.6;;
60865;SDS011;46701;51.558;-0.448;2022-08-14T06:58:56;13.1;;;2.1;;
60865;SDS011;46701;51.558;-0.448;2022-08-14T07:01:57;5.8;;;1.6;;
60865;SDS011;46701;51.558;-0.448;2022-08-14T07:04:58;7.9;;;1.7;;
60865;SDS011;46701;51.558;-0.448;2022-08-14T07:07:59;7.6;;;1.7;;
60865;SDS011;46701;51.558;-0.448;2022-08-14T07:11:00;13.4;;;1.8;;
60865;SDS011;46701;51.558;-0.448;2022-08-14T07:14:01;15.2;;;2.1;;
60865;SDS011;46701;51.558;-0.448;2022-08-14T07:17:02;11.7;;;2.2;;
60865;SDS011;46701;51.558;-0.448;2022-08-14T07:20:03;11.2;;;2.1;;
60865;SDS011;46701;51.558;-0.448;2022-08-14T07:23:04;10.9;;;2.2;;
60865;SDS011;46701;51.558;-0.448;2022-08-14T07:26:05;9;;;2.2;;
60865;SDS011;46701;51.558;-0.448;2022-08-14T07:29:06;8.2;;;1.7;;
60865;SDS011;46701;51.558;-0.448;2022-08-14T07:32:07;9.4;;;2.1;;
60865;SDS011;46701;51.558;-0.448;2022-08-14T07:35:08;8.9;;;2;;
60865;SDS011;46701;51.558;-0.448;2022-08-14T07:38:15;9.5;;;2;;
60865;SDS011;46701;51.558;-0.448;2022-08-14T07:39:20;9.5;;;2;;
60865;SDS011;46701;51.558;-0.448;2022-08-14T07:41:11;14;;;2;;
60865;SDS011;46701;51.558;-0.448;2022-08-14T07:44:11;11.1;;;2;;
60865;SDS011;46701;51.558;-0.448;2022-08-14T07:46:12;10;;;2;;
60865;SDS011;46701;51.558;-0.448;2022-08-14T07:49:13;12.3;;;2.2;;
60865;SDS011;46701;51.558;-0.448;2022-08-14T07:52:14;8.2;;;1.9;;
60865;SDS011;46701;51.558;-0.448;2022-08-14T07:55:15;9.5;;;1.8;;
60865;SDS011;46701;51.558;-0.448;2022-08-14T07:58:16;11.6;;;2.3;;
60865;SDS011;46701;51.558;-0.448;2022-08-14T08:01:17;8.7;;;1.9;;
60865;SDS011;46701;51.558;-0.448;2022-08-14T08:04:20;5.6;;;2;;
60865;SDS011;46701;51.558;-0.448;2022-08-14T08:07:19;4.7;;;1.7;;
60865;SDS011;46701;51.558;-0.448;2022-08-14T08:10:20;4.9;;;1.8;;
60865;SDS011;46701;51.558;-0.448;2022-08-14T08:13:21;6.3;;;2.1;;
60865;SDS011;46701;51.558;-0.448;2022-08-14T08:16:22;5.7;;;2.1;;
60865;SDS011;46701;51.558;-0.448;2022-08-14T08:19:23;5.7;;;2;;
60865;SDS011;46701;51.558;-0.448;2022-08-14T08:22:24;5.8;;;1.9;;
60865;SDS011;46701;51.558;-0.448;2022-08-14T08:25:25;4.3;;;2;;
60865;SDS011;46701;51.558;-0.448;2022-08-14T08:28:26;6.7;;;1.9;;
60865;SDS011;46701;51.558;-0.448;2022-08-14T08:31:31;4.3;;;1.9;;
60865;SDS011;46701;51.558;-0.448;2022-08-14T08:34:28;2.7;;;2;;
60865;SDS011;46701;51.558;-0.448;2022-08-14T08:37:29;2.9;;;1.9;;
60865;SDS011;46701;51.558;-0.448;2022-08-14T08:40:30;3.9;;;1.8;;
60865;SDS011;46701;51.558;-0.448;2022-08-14T08:43:31;2.8;;;1.9;;
60865;SDS011;46701;51.558;-0.448;2022-08-14T08:46:32;3.9;;;1.9;;
60865;SDS011;46701;51.558;-0.448;2022-08-14T08:49:35;3.6;;;1.8;;
60865;SDS011;46701;51.558;-0.448;2022-08-14T08:52:34;5.4;;;2;;
60865;SDS011;46701;51.558;-0.448;2022-08-14T08:55:36;6.9;;;2.1;;
60865;SDS011;46701;51.558;-0.448;2022-08-14T08:58:36;6.1;;;2.2;;
60865;SDS011;46701;51.558;-0.448;2022-08-14T09:01:37;7.2;;;2.3;;
60865;SDS011;46701;51.558;-0.448;2022-08-14T09:04:39;6;;;2;;
60865;SDS011;46701;51.558;-0.448;2022-08-14T09:07:39;4.3;;;2;;
60865;SDS011;46701;51.558;-0.448;2022-08-14T09:10:40;5.9;;;2.2;;
60865;SDS011;46701;51.558;-0.448;2022-08-14T09:13:40;4.4;;;2.1;;
60865;SDS011;46701;51.558;-0.448;2022-08-14T09:16:42;4.7;;;1.9;;
60865;SDS011;46701;51.558;-0.448;2022-08-14T09:19:43;4.1;;;2.1;;
60865;SDS011;46701;51.558;-0.448;2022-08-14T09:22:44;3.9;;;1.9;;
60865;SDS011;46701;51.558;-0.448;2022-08-14T09:25:45;5.6;;;1.9;;
60865;SDS011;46701;51.558;-0.448;2022-08-14T09:28:45;3.9;;;2;;
60865;SDS011;46701;51.558;-0.448;2022-08-14T09:31:47;4;;;2;;
60865;SDS011;46701;51.558;-0.448;2022-08-14T09:34:51;3;;;1.9;;
60865;SDS011;46701;51.558;-0.448;2022-08-14T09:36:06;3;;;1.9;;
60865;SDS011;46701;51.558;-0.448;2022-08-14T09:36:12;3;;;1.9;;
60865;SDS011;46701;51.558;-0.448;2022-08-14T09:36:17;3;;;1.9;;
60865;SDS011;46701;51.558;-0.448;2022-08-14T09:36:26;3;;;1.9;;
60865;SDS011;46701;51.558;-0.448;2022-08-14T09:36:26;3;;;1.9;;
60865;SDS011;46701;51.558;-0.448;2022-08-14T09:37:54;3.1;;;2;;
60865;SDS011;46701;51.558;-0.448;2022-08-14T09:40:53;2.7;;;1.9;;
60865;SDS011;46701;51.558;-0.448;2022-08-14T09:43:53;3.6;;;2.2;;
60865;SDS011;46701;51.558;-0.448;2022-08-14T09:44:03;3.6;;;2.2;;
60865;SDS011;46701;51.558;-0.448;2022-08-14T09:45:51;6.1;;;2.2;;
60865;SDS011;46701;51.558;-0.448;2022-08-14T09:49:00;4.5;;;2.1;;
60865;SDS011;46701;51.558;-0.448;2022-08-14T09:49:54;4.5;;;2.1;;
60865;SDS011;46701;51.558;-0.448;2022-08-14T09:51:53;6.9;;;2.2;;
60865;SDS011;46701;51.558;-0.448;2022-08-14T09:52:15;6.9;;;2.2;;
60865;SDS011;46701;51.558;-0.448;2022-08-14T09:54:54;5;;;2.1;;
60865;SDS011;46701;51.558;-0.448;2022-08-14T09:58:05;6.5;;;2.1;;
60865;SDS011;46701;51.558;-0.448;2022-08-14T09:58:06;6.5;;;2.1;;
60865;SDS011;46701;51.558;-0.448;2022-08-14T10:00:56;3.2;;;1.9;;
60865;SDS011;46701;51.558;-0.448;2022-08-14T10:03:57;4.7;;;2;;
60865;SDS011;46701;51.558;-0.448;2022-08-14T10:06:58;4.3;;;2.1;;
60865;SDS011;46701;51.558;-0.448;2022-08-14T10:09:59;2.8;;;1.7;;
60865;SDS011;46701;51.558;-0.448;2022-08-14T10:13:00;5.2;;;2.2;;
60865;SDS011;46701;51.558;-0.448;2022-08-14T10:16:01;3.7;;;2.1;;
60865;SDS011;46701;51.558;-0.448;2022-08-14T10:19:03;4.4;;;2.2;;
60865;SDS011;46701;51.558;-0.448;2022-08-14T10:22:04;5.1;;;2;;
60865;SDS011;46701;51.558;-0.448;2022-08-14T10:25:09;3.8;;;2;;
60865;SDS011;46701;51.558;-0.448;2022-08-14T10:28:05;3.1;;;2.1;;
60865;SDS011;46701;51.558;-0.448;2022-08-14T10:31:14;3.2;;;1.8;;
60865;SDS011;46701;51.558;-0.448;2022-08-14T10:31:58;3.2;;;1.8;;
60865;SDS011;46701;51.558;-0.448;2022-08-14T10:34:08;3.4;;;1.9;;
60865;SDS011;46701;51.558;-0.448;2022-08-14T10:37:09;5.8;;;2;;
60865;SDS011;46701;51.558;-0.448;2022-08-14T10:40:09;3.5;;;2;;
60865;SDS011;46701;51.558;-0.448;2022-08-14T10:43:16;4.7;;;1.8;;
60865;SDS011;46701;51.558;-0.448;2022-08-14T10:43:40;4.7;;;1.8;;
60865;SDS011;46701;51.558;-0.448;2022-08-14T10:46:12;5;;;2;;
60865;SDS011;46701;51.558;-0.448;2022-08-14T10:49:16;9.3;;;2.3;;
60865;SDS011;46701;51.558;-0.448;2022-08-14T10:52:18;13.1;;;2.8;;
60865;SDS011;46701;51.558;-0.448;2022-08-14T10:55:15;20.2;;;2.9;;
60865;SDS011;46701;51.558;-0.448;2022-08-14T10:58:25;9.3;;;2.8;;
60865;SDS011;46701;51.558;-0.448;2022-08-14T10:58:59;9.3;;;2.8;;
60865;SDS011;46701;51.558;-0.448;2022-08-14T11:01:16;10.3;;;2.9;;
60865;SDS011;46701;51.558;-0.448;2022-08-14T11:04:19;13;;;2.7;;
60865;SDS011;46701;51.558;-0.448;2022-08-14T11:07:18;9.6;;;2.7;;
60865;SDS011;46701;51.558;-0.448;2022-08-14T11:10:20;6.9;;;2.6;;
60865;SDS011;46701;51.558;-0.448;2022-08-14T11:13:21;8.8;;;2.4;;
60865;SDS011;46701;51.558;-0.448;2022-08-14T11:16:21;5.9;;;2.3;;
60865;SDS011;46701;51.558;-0.448;2022-08-14T11:19:22;5.9;;;2.5;;
60865;SDS011;46701;51.558;-0.448;2022-08-14T11:22:23;5.3;;;2.4;;
60865;SDS011;46701;51.558;-0.448;2022-08-14T11:25:25;9.3;;;2.3;;
60865;SDS011;46701;51.558;-0.448;2022-08-14T11:28:26;8.3;;;2.7;;
60865;SDS011;46701;51.558;-0.448;2022-08-14T11:31:26;7.1;;;2.1;;
60865;SDS011;46701;51.558;-0.448;2022-08-14T11:34:27;9.6;;;2.2;;
60865;SDS011;46701;51.558;-0.448;2022-08-14T11:37:28;7.2;;;2.3;;
60865;SDS011;46701;51.558;-0.448;2022-08-14T11:40:29;8.2;;;2.4;;
60865;SDS011;46701;51.558;-0.448;2022-08-14T11:43:30;9.7;;;2.4;;
60865;SDS011;46701;51.558;-0.448;2022-08-14T11:46:31;5.4;;;2;;
60865;SDS011;46701;51.558;-0.448;2022-08-14T11:48:31;8.1;;;2.1;;
60865;SDS011;46701;51.558;-0.448;2022-08-14T11:51:33;5.5;;;2.1;;
60865;SDS011;46701;51.558;-0.448;2022-08-14T11:54:33;6;;;2.2;;
60865;SDS011;46701;51.558;-0.448;2022-08-14T11:57:34;6.9;;;1.9;;
60865;SDS011;46701;51.558;-0.448;2022-08-14T12:00:44;6.4;;;2;;
60865;SDS011;46701;51.558;-0.448;2022-08-14T12:00:51;6.4;;;2;;
60865;SDS011;46701;51.558;-0.448;2022-08-14T12:03:37;5.2;;;1.9;;
60865;SDS011;46701;51.558;-0.448;2022-08-14T12:06:46;5.6;;;2.1;;
60865;SDS011;46701;51.558;-0.448;2022-08-14T12:07:52;5.6;;;2.1;;
60865;SDS011;46701;51.558;-0.448;2022-08-14T12:09:38;5;;;1.8;;
60865;SDS011;46701;51.558;-0.448;2022-08-14T12:12:39;3.8;;;1.9;;
60865;SDS011;46701;51.558;-0.448;2022-08-14T12:15:41;4.7;;;1.7;;
60865;SDS011;46701;51.558;-0.448;2022-08-14T12:18:42;5.7;;;1.9;;
60865;SDS011;46701;51.558;-0.448;2022-08-14T12:21:48;5.4;;;1.8;;
60865;SDS011;46701;51.558;-0.448;2022-08-14T12:21:59;5.4;;;1.8;;
60865;SDS011;46701;51.558;-0.448;2022-08-14T12:24:43;3.6;;;1.9;;
60865;SDS011;46701;51.558;-0.448;2022-08-14T12:27:46;4.1;;;2;;
60865;SDS011;46701;51.558;-0.448;2022-08-14T12:30:45;4.8;;;1.9;;
60865;SDS011;46701;51.558;-0.448;2022-08-14T12:33:54;4;;;1.8;;
60865;SDS011;46701;51.558;-0.448;2022-08-14T12:34:51;4;;;1.8;;
60865;SDS011;46701;51.558;-0.448;2022-08-14T12:36:47;4.9;;;1.8;;
60865;SDS011;46701;51.558;-0.448;2022-08-14T12:39:48;5.6;;;2;;
60865;SDS011;46701;51.558;-0.448;2022-08-14T12:42:50;3.6;;;1.7;;
60865;SDS011;46701;51.558;-0.448;2022-08-14T12:45:53;4.4;;;1.6;;
60865;SDS011;46701;51.558;-0.448;2022-08-14T12:48:52;5.6;;;1.7;;
60865;SDS011;46701;51.558;-0.448;2022-08-14T12:51:56;3.4;;;1.6;;
60865;SDS011;46701;51.558;-0.448;2022-08-14T12:54:55;4.1;;;1.7;;
60865;SDS011;46701;51.558;-0.448;2022-08-14T12:57:54;2.7;;;1.6;;
60865;SDS011;46701;51.558;-0.448;2022-08-14T13:00:56;4.9;;;1.8;;
60865;SDS011;46701;51.558;-0.448;2022-08-14T13:04:04;2.7;;;1.7;;
60865;SDS011;46701;51.558;-0.448;2022-08-14T13:04:05;2.7;;;1.7;;
60865;SDS011;46701;51.558;-0.448;2022-08-14T13:06:59;3.5;;;1.6;;
60865;SDS011;46701;51.558;-0.448;2022-08-14T13:09:59;2.6;;;1.5;;
60865;SDS011;46701;51.558;-0.448;2022-08-14T13:13:00;3.1;;;1.7;;
60865;SDS011;46701;51.558;-0.448;2022-08-14T13:16:00;2.8;;;1.4;;
60865;SDS011;46701;51.558;-0.448;2022-08-14T13:19:02;4.8;;;1.5;;
60865;SDS011;46701;51.558;-0.448;2022-08-14T13:22:02;3.3;;;1.6;;
60865;SDS011;46701;51.558;-0.448;2022-08-14T13:25:04;3.5;;;1.4;;
60865;SDS011;46701;51.558;-0.448;2022-08-14T13:28:05;2.6;;;1.4;;
60865;SDS011;46701;51.558;-0.448;2022-08-14T13:31:06;2.9;;;1.3;;
60865;SDS011;46701;51.558;-0.448;2022-08-14T13:34:06;2.9;;;1.4;;
60865;SDS011;46701;51.558;-0.448;2022-08-14T13:37:07;3.3;;;1.6;;
60865;SDS011;46701;51.558;-0.448;2022-08-14T13:40:09;2.1;;;1.3;;
60865;SDS011;46701;51.558;-0.448;2022-08-14T13:43:11;3;;;1.4;;
60865;SDS011;46701;51.558;-0.448;2022-08-14T13:46:10;2.9;;;1.4;;
60865;SDS011;46701;51.558;-0.448;2022-08-14T13:49:12;2.5;;;1.4;;
60865;SDS011;46701;51.558;-0.448;2022-08-14T13:51:12;3.1;;;1.5;;
60865;SDS011;46701;51.558;-0.448;2022-08-14T13:54:14;2.3;;;1.2;;
60865;SDS011;46701;51.558;-0.448;2022-08-14T13:57:14;1.8;;;1.2;;
60865;SDS011;46701;51.558;-0.448;2022-08-14T14:00:15;1.7;;;1.2;;
60865;SDS011;46701;51.558;-0.448;2022-08-14T14:03:16;2.3;;;1.3;;
60865;SDS011;46701;51.558;-0.448;2022-08-14T14:06:17;1.6;;;1.2;;
60865;SDS011;46701;51.558;-0.448;2022-08-14T14:09:20;2.5;;;1.2;;
60865;SDS011;46701;51.558;-0.448;2022-08-14T14:12:19;2.4;;;1.2;;
60865;SDS011;46701;51.558;-0.448;2022-08-14T14:15:20;2.5;;;1.4;;
60865;SDS011;46701;51.558;-0.448;2022-08-14T14:18:21;2.1;;;1.3;;
60865;SDS011;46701;51.558;-0.448;2022-08-14T14:21:23;2.4;;;1.1;;
60865;SDS011;46701;51.558;-0.448;2022-08-14T14:24:23;1.9;;;1.1;;
60865;SDS011;46701;51.558;-0.448;2022-08-14T14:27:25;1.9;;;1.2;;
60865;SDS011;46701;51.558;-0.448;2022-08-14T14:30:25;2.6;;;1.3;;
60865;SDS011;46701;51.558;-0.448;2022-08-14T14:33:26;2.3;;;1.2;;
60865;SDS011;46701;51.558;-0.448;2022-08-14T14:36:28;1.5;;;1.2;;
60865;SDS011;46701;51.558;-0.448;2022-08-14T14:39:28;1.5;;;1;;
60865;SDS011;46701;51.558;-0.448;2022-08-14T14:42:29;1.9;;;1.1;;
60865;SDS011;46701;51.558;-0.448;2022-08-14T14:45:30;2.3;;;1.2;;
60865;SDS011;46701;51.558;-0.448;2022-08-14T14:48:32;1.7;;;1.1;;
60865;SDS011;46701;51.558;-0.448;2022-08-14T14:51:32;1.5;;;1;;
60865;SDS011;46701;51.558;-0.448;2022-08-14T14:54:33;1.5;;;1;;
60865;SDS011;46701;51.558;-0.448;2022-08-14T14:57:34;1.7;;;1.1;;
60865;SDS011;46701;51.558;-0.448;2022-08-14T15:00:35;2.1;;;1.2;;
60865;SDS011;46701;51.558;-0.448;2022-08-14T15:03:36;1.5;;;1.1;;
60865;SDS011;46701;51.558;-0.448;2022-08-14T15:06:37;2;;;1.1;;
60865;SDS011;46701;51.558;-0.448;2022-08-14T15:09:38;1.6;;;1.1;;
60865;SDS011;46701;51.558;-0.448;2022-08-14T15:12:39;1.4;;;0.9;;
60865;SDS011;46701;51.558;-0.448;2022-08-14T15:15:40;1.7;;;1;;
60865;SDS011;46701;51.558;-0.448;2022-08-14T15:18:41;1.1;;;1;;
60865;SDS011;46701;51.558;-0.448;2022-08-14T15:21:42;1.5;;;1;;
60865;SDS011;46701;51.558;-0.448;2022-08-14T15:24:43;1.9;;;1;;
60865;SDS011;46701;51.558;-0.448;2022-08-14T15:27:44;1.4;;;1;;
60865;SDS011;46701;51.558;-0.448;2022-08-14T15:30:45;1.4;;;1;;
60865;SDS011;46701;51.558;-0.448;2022-08-14T15:33:46;2;;;1.1;;
60865;SDS011;46701;51.558;-0.448;2022-08-14T15:36:47;1.6;;;1;;
60865;SDS011;46701;51.558;-0.448;2022-08-14T15:39:48;1.8;;;1.1;;
60865;SDS011;46701;51.558;-0.448;2022-08-14T15:42:49;1.6;;;1;;
60865;SDS011;46701;51.558;-0.448;2022-08-14T15:45:50;1.2;;;0.9;;
60865;SDS011;46701;51.558;-0.448;2022-08-14T15:48:51;1.3;;;0.9;;
60865;SDS011;46701;51.558;-0.448;2022-08-14T15:51:52;1.6;;;1;;
60865;SDS011;46701;51.558;-0.448;2022-08-14T15:53:52;1.6;;;0.8;;
60865;SDS011;46701;51.558;-0.448;2022-08-14T15:56:55;1.3;;;0.9;;
60865;SDS011;46701;51.558;-0.448;2022-08-14T15:59:54;1.2;;;0.9;;
60865;SDS011;46701;51.558;-0.448;2022-08-14T16:02:55;2;;;1;;
60865;SDS011;46701;51.558;-0.448;2022-08-14T16:05:56;1.1;;;0.8;;
60865;SDS011;46701;51.558;-0.448;2022-08-14T16:08:57;1.4;;;1;;
60865;SDS011;46701;51.558;-0.448;2022-08-14T16:11:58;1;;;0.8;;
60865;SDS011;46701;51.558;-0.448;2022-08-14T16:14:59;1.6;;;0.9;;
60865;SDS011;46701;51.558;-0.448;2022-08-14T16:18:00;1.1;;;0.7;;
60865;SDS011;46701;51.558;-0.448;2022-08-14T16:21:04;1.5;;;1;;
60865;SDS011;46701;51.558;-0.448;2022-08-14T16:24:03;1.2;;;0.9;;
60865;SDS011;46701;51.558;-0.448;2022-08-14T16:27:04;1.2;;;0.8;;
60865;SDS011;46701;51.558;-0.448;2022-08-14T16:30:05;1.6;;;0.9;;
60865;SDS011;46701;51.558;-0.448;2022-08-14T16:33:05;2.7;;;0.8;;
60865;SDS011;46701;51.558;-0.448;2022-08-14T16:36:07;1.5;;;0.8;;
60865;SDS011;46701;51.558;-0.448;2022-08-14T16:39:07;1;;;0.8;;
60865;SDS011;46701;51.558;-0.448;2022-08-14T16:42:09;1.6;;;0.8;;
60865;SDS011;46701;51.558;-0.448;2022-08-14T16:45:10;1.2;;;0.8;;
60865;SDS011;46701;51.558;-0.448;2022-08-14T16:48:10;2.2;;;0.8;;
60865;SDS011;46701;51.558;-0.448;2022-08-14T16:51:11;1.5;;;0.9;;
60865;SDS011;46701;51.558;-0.448;2022-08-14T16:54:14;1;;;0.8;;
60865;SDS011;46701;51.558;-0.448;2022-08-14T16:57:15;1.1;;;0.9;;
60865;SDS011;46701;51.558;-0.448;2022-08-14T17:00:31;1.5;;;0.9;;
60865;SDS011;46701;51.558;-0.448;2022-08-14T17:00:55;1.5;;;0.9;;
60865;SDS011;46701;51.558;-0.448;2022-08-14T17:01:10;1.5;;;0.9;;
60865;SDS011;46701;51.558;-0.448;2022-08-14T17:01:11;1.5;;;0.9;;
60865;SDS011;46701;51.558;-0.448;2022-08-14T17:01:14;1.5;;;0.9;;
60865;SDS011;46701;51.558;-0.448;2022-08-14T17:03:15;0.9;;;0.7;;
60865;SDS011;46701;51.558;-0.448;2022-08-14T17:06:20;1.4;;;0.8;;
60865;SDS011;46701;51.558;-0.448;2022-08-14T17:07:02;1.4;;;0.8;;
60865;SDS011;46701;51.558;-0.448;2022-08-14T17:09:25;1;;;0.7;;
60865;SDS011;46701;51.558;-0.448;2022-08-14T17:09:35;1;;;0.7;;
60865;SDS011;46701;51.558;-0.448;2022-08-14T17:12:19;1.2;;;0.8;;
60865;SDS011;46701;51.558;-0.448;2022-08-14T17:15:19;1.2;;;0.7;;